createdAt,value
2023-02-06T00:00:08.109Z,0.65
2023-02-06T00:03:09.630Z,0.74
2023-02-06T00:06:11.150Z,0.68
2023-02-06T00:09:12.746Z,0.81
2023-02-06T00:12:14.227Z,0.74
2023-02-06T00:15:15.709Z,0.72
2023-02-06T00:18:17.137Z,0.60
2023-02-06T00:21:21.577Z,0.59
2023-02-06T00:24:23.044Z,0.70
2023-02-06T00:27:24.577Z,0.59
2023-02-06T00:30:26.246Z,0.49
2023-02-06T00:33:27.697Z,0.82
2023-02-06T00:36:29.178Z,0.65
2023-02-06T00:39:30.695Z,0.48
2023-02-06T00:42:32.129Z,0.66
2023-02-06T00:45:33.884Z,0.49
2023-02-06T00:48:35.586Z,0.71
2023-02-06T00:51:38.795Z,0.73
2023-02-06T00:54:40.330Z,0.58
2023-02-06T00:57:41.789Z,0.62
2023-02-06T01:00:43.394Z,0.56
2023-02-06T01:03:44.903Z,0.66
2023-02-06T01:06:46.375Z,0.63
2023-02-06T01:09:47.899Z,0.63
2023-02-06T01:12:49.335Z,0.56
2023-02-06T01:15:51.265Z,0.66
2023-02-06T01:18:53.021Z,0.63
2023-02-06T01:21:54.493Z,0.69
2023-02-06T01:24:55.988Z,0.65
2023-02-06T01:27:57.471Z,0.60
2023-02-06T01:30:59.036Z,0.75
2023-02-06T01:34:00.999Z,0.79
2023-02-06T01:37:02.556Z,0.81
2023-02-06T01:40:08.732Z,0.88
2023-02-06T01:43:17.680Z,0.91
2023-02-06T01:46:19.182Z,0.65
2023-02-06T01:49:34.104Z,0.63
2023-02-06T01:52:35.685Z,0.61
2023-02-06T01:55:37.640Z,0.68
2023-02-06T01:58:41.348Z,0.59
2023-02-06T02:01:42.887Z,0.74
2023-02-06T02:04:44.385Z,0.77
2023-02-06T02:08:00.942Z,0.79
2023-02-06T02:11:03.669Z,0.78
2023-02-06T02:14:06.203Z,0.84
2023-02-06T02:17:52.174Z,0.73
2023-02-06T02:21:16.919Z,0.76
2023-02-06T02:24:39.587Z,0.68
2023-02-06T02:27:59.350Z,0.66
2023-02-06T02:31:38.797Z,0.52
2023-02-06T02:34:57.645Z,0.50
2023-02-06T02:38:08.389Z,0.62
2023-02-06T02:41:14.444Z,0.55
2023-02-06T02:44:19.692Z,0.69
2023-02-06T02:47:23.402Z,0.60
2023-02-06T02:50:24.881Z,0.65
2023-02-06T02:53:26.787Z,0.81
2023-02-06T02:56:28.271Z,0.91
2023-02-06T02:59:34.185Z,0.72
2023-02-06T03:02:36.806Z,0.67
2023-02-06T03:05:40.701Z,0.76
2023-02-06T03:08:56.723Z,0.83
2023-02-06T03:12:24.973Z,0.80
2023-02-06T03:15:54.160Z,0.71
2023-02-06T03:19:03.030Z,0.67
2023-02-06T03:22:04.522Z,0.64
2023-02-06T03:25:10.258Z,0.70
2023-02-06T03:28:39.311Z,0.68
2023-02-06T03:31:55.519Z,0.80
2023-02-06T03:35:03.734Z,0.81
2023-02-06T03:38:05.169Z,0.67
2023-02-06T03:41:06.600Z,0.81
2023-02-06T03:44:09.545Z,0.90
2023-02-06T03:47:11.000Z,0.81
2023-02-06T03:50:12.541Z,0.95
2023-02-06T03:53:14.013Z,1.04
2023-02-06T03:56:48.623Z,1.04
2023-02-06T03:59:50.157Z,0.90
2023-02-06T04:02:51.599Z,0.80
2023-02-06T04:05:53.064Z,0.84
2023-02-06T04:08:54.551Z,0.73
2023-02-06T04:11:56.025Z,0.62
2023-02-06T04:14:57.516Z,0.69
2023-02-06T04:18:01.296Z,0.73
2023-02-06T04:21:04.914Z,0.57
2023-02-06T04:24:06.406Z,0.65
2023-02-06T04:27:13.323Z,0.62
2023-02-06T04:30:15.669Z,0.48
2023-02-06T04:33:17.129Z,0.55
2023-02-06T04:36:19.204Z,0.61
2023-02-06T04:39:20.658Z,0.54
2023-02-06T04:42:22.378Z,0.69
2023-02-06T04:45:23.831Z,0.64
2023-02-06T04:48:25.437Z,0.69
2023-02-06T04:51:26.882Z,0.74
2023-02-06T04:54:28.348Z,0.77
2023-02-06T04:57:29.875Z,0.84
2023-02-06T05:00:31.334Z,0.75
2023-02-06T05:03:32.869Z,0.70
2023-02-06T05:06:34.373Z,0.72
2023-02-06T05:09:35.856Z,0.66
2023-02-06T05:12:37.380Z,0.66
2023-02-06T05:15:39.208Z,0.74
2023-02-06T05:18:41.371Z,0.79
2023-02-06T05:21:42.876Z,0.77
2023-02-06T05:24:44.349Z,0.66
2023-02-06T05:27:45.895Z,0.67
2023-02-06T05:30:47.422Z,0.73
2023-02-06T05:33:52.573Z,0.69
2023-02-06T05:36:54.275Z,0.76
2023-02-06T05:39:55.752Z,0.72
2023-02-06T05:42:57.700Z,0.66
2023-02-06T05:45:59.328Z,0.73
2023-02-06T05:49:01.052Z,0.70
2023-02-06T05:52:02.576Z,0.71
2023-02-06T05:55:04.131Z,0.72
2023-02-06T05:58:06.426Z,1.13
2023-02-06T06:01:07.978Z,0.93
2023-02-06T06:04:09.483Z,0.67
2023-02-06T06:07:10.986Z,0.59
2023-02-06T06:10:12.466Z,0.63
2023-02-06T06:13:13.920Z,0.47
2023-02-06T06:16:15.431Z,0.57
2023-02-06T06:19:16.941Z,0.57
2023-02-06T06:22:18.417Z,0.68
2023-02-06T06:25:20.452Z,0.70
2023-02-06T06:28:21.927Z,0.68
2023-02-06T06:31:23.443Z,0.52
2023-02-06T06:34:25.736Z,0.62
2023-02-06T06:37:27.211Z,0.59
2023-02-06T06:40:28.742Z,0.49
2023-02-06T06:43:30.317Z,0.47
2023-02-06T06:46:31.778Z,0.53
2023-02-06T06:49:33.466Z,0.54
2023-02-06T06:52:34.956Z,0.46
2023-02-06T06:55:36.791Z,0.47
2023-02-06T06:58:38.413Z,0.37
2023-02-06T07:01:39.875Z,0.46
2023-02-06T07:04:41.332Z,0.38
2023-02-06T07:07:42.787Z,0.40
2023-02-06T07:10:44.382Z,0.45
2023-02-06T07:13:45.882Z,0.49
2023-02-06T07:16:47.340Z,0.42
2023-02-06T07:19:51.396Z,0.38
2023-02-06T07:22:53.587Z,0.20
2023-02-06T07:25:56.537Z,0.18
2023-02-06T07:28:58.015Z,0.10
2023-02-06T07:31:59.604Z,0.01
2023-02-06T07:35:01.119Z,0.01
2023-02-06T07:38:02.559Z,0.00
2023-02-06T07:41:04.028Z,-0.18
2023-02-06T07:44:05.982Z,-0.30
2023-02-06T07:47:09.289Z,-0.24
2023-02-06T07:50:11.066Z,-0.37
2023-02-06T07:53:12.529Z,-0.35
2023-02-06T07:56:15.552Z,-0.35
2023-02-06T07:59:17.034Z,-0.41
2023-02-06T08:02:18.505Z,-0.39
2023-02-06T08:05:20.020Z,-0.38
2023-02-06T08:08:21.456Z,-0.32
2023-02-06T08:11:25.154Z,-0.16
2023-02-06T08:14:26.918Z,-0.15
2023-02-06T08:17:28.396Z,-0.07
2023-02-06T08:20:30.041Z,-0.16
2023-02-06T08:23:31.554Z,-0.11
2023-02-06T08:26:33.083Z,0.05
2023-02-06T08:29:40.389Z,0.18
2023-02-06T08:32:41.830Z,0.37
2023-02-06T08:35:43.323Z,0.45
2023-02-06T08:38:44.780Z,0.44
2023-02-06T08:41:46.308Z,0.49
2023-02-06T08:44:48.107Z,0.60
2023-02-06T08:47:50.216Z,0.68
2023-02-06T08:50:51.749Z,0.89
2023-02-06T08:53:57.459Z,1.13
2023-02-06T08:57:00.985Z,0.94
2023-02-06T09:00:02.658Z,1.31
2023-02-06T09:03:05.442Z,1.32
2023-02-06T09:06:10.223Z,1.40
2023-02-06T09:09:12.291Z,1.54
2023-02-06T09:12:13.789Z,1.70
2023-02-06T09:15:15.289Z,1.67
2023-02-06T09:18:16.837Z,1.84
2023-02-06T09:21:22.618Z,1.76
2023-02-06T09:24:24.133Z,1.92
2023-02-06T09:27:25.650Z,2.04
2023-02-06T09:30:27.139Z,2.15
2023-02-06T09:33:28.618Z,2.08
2023-02-06T09:36:30.390Z,1.98
2023-02-06T09:39:32.449Z,2.00
2023-02-06T09:42:38.054Z,1.90
2023-02-06T09:45:39.505Z,1.90
2023-02-06T09:48:40.963Z,1.83
2023-02-06T09:51:55.923Z,2.06
2023-02-06T09:55:10.055Z,1.88
2023-02-06T09:58:21.593Z,1.95
2023-02-06T10:01:31.427Z,2.09
2023-02-06T10:04:41.982Z,1.84
2023-02-06T10:08:09.658Z,1.95
2023-02-06T10:11:17.378Z,2.12
2023-02-06T10:14:38.533Z,2.04
2023-02-06T10:17:52.476Z,2.11
2023-02-06T10:20:56.123Z,2.21
2023-02-06T10:24:03.349Z,2.19
2023-02-06T10:27:09.620Z,2.44
2023-02-06T10:30:19.696Z,2.73
2023-02-06T10:33:36.093Z,2.85
2023-02-06T10:36:48.228Z,2.66
2023-02-06T10:40:27.390Z,2.40
2023-02-06T10:43:35.487Z,2.66
2023-02-06T10:46:41.219Z,2.69
2023-02-06T10:49:46.826Z,2.58
2023-02-06T10:52:48.430Z,2.67
2023-02-06T10:55:55.699Z,2.67
2023-02-06T10:59:10.329Z,2.49
2023-02-06T11:02:33.177Z,2.66
2023-02-06T11:05:35.323Z,2.56
2023-02-06T11:08:40.840Z,2.37
2023-02-06T11:11:47.947Z,2.33
2023-02-06T11:14:49.767Z,2.56
2023-02-06T11:17:51.974Z,2.81
2023-02-06T11:20:55.713Z,3.00
2023-02-06T11:24:14.700Z,3.11
2023-02-06T11:27:18.648Z,4.67
2023-02-06T11:30:30.266Z,5.60
2023-02-06T11:33:54.184Z,6.67
2023-02-06T11:36:59.548Z,5.11
2023-02-06T11:40:15.141Z,4.22
2023-02-06T11:43:21.751Z,4.30
2023-02-06T11:46:27.887Z,4.75
2023-02-06T11:49:29.441Z,4.46
2023-02-06T11:52:32.915Z,4.40
2023-02-06T11:55:35.241Z,4.40
2023-02-06T11:58:37.075Z,4.91
2023-02-06T12:01:43.731Z,4.91
2023-02-06T12:04:45.182Z,5.03
2023-02-06T12:07:52.252Z,5.10
2023-02-06T12:10:59.065Z,4.91
2023-02-06T12:14:21.945Z,4.83
2023-02-06T12:17:36.042Z,4.35
2023-02-06T12:20:47.406Z,4.37
2023-02-06T12:23:50.235Z,4.72
2023-02-06T12:26:51.769Z,4.23
2023-02-06T12:29:59.249Z,4.53
2023-02-06T12:33:15.670Z,4.41
2023-02-06T12:36:22.389Z,4.53
2023-02-06T12:39:30.224Z,4.17
2023-02-06T12:42:50.291Z,3.68
2023-02-06T12:45:54.371Z,3.68
2023-02-06T12:49:22.311Z,3.54
2023-02-06T12:52:37.790Z,3.51
2023-02-06T12:55:42.556Z,3.73
2023-02-06T12:58:43.847Z,3.72
2023-02-06T13:02:00.985Z,3.64
2023-02-06T13:05:05.748Z,4.14
2023-02-06T13:08:41.154Z,4.07
2023-02-06T13:11:42.633Z,4.12
2023-02-06T13:14:52.470Z,3.62
2023-02-06T13:17:55.639Z,3.28
2023-02-06T13:21:28.548Z,3.50
2023-02-06T13:24:30.085Z,3.45
2023-02-06T13:27:38.790Z,3.22
2023-02-06T13:30:40.438Z,3.30
2023-02-06T13:33:44.222Z,3.08
2023-02-06T13:36:50.046Z,3.00
2023-02-06T13:40:23.412Z,3.21
2023-02-06T13:43:26.518Z,3.17
2023-02-06T13:47:01.775Z,3.07
2023-02-06T13:50:34.751Z,3.03
2023-02-06T13:54:10.441Z,2.67
2023-02-06T13:57:41.390Z,2.63
2023-02-06T14:00:43.724Z,2.60
2023-02-06T14:03:47.597Z,2.63
2023-02-06T14:06:56.827Z,2.55
2023-02-06T14:10:05.189Z,2.65
2023-02-06T14:13:25.402Z,2.55
2023-02-06T14:17:03.883Z,2.39
2023-02-06T14:20:08.213Z,2.21
2023-02-06T14:23:16.354Z,2.16
2023-02-06T14:26:48.635Z,2.31
2023-02-06T14:30:06.665Z,2.16
2023-02-06T14:33:17.489Z,2.13
2023-02-06T14:36:25.078Z,2.11
2023-02-06T14:39:41.609Z,1.96
2023-02-06T14:42:43.541Z,1.91
2023-02-06T14:46:05.680Z,1.92
2023-02-06T14:49:16.441Z,1.90
2023-02-06T14:52:20.011Z,1.68
2023-02-06T14:55:37.036Z,1.62
2023-02-06T14:58:38.740Z,1.68
2023-02-06T15:01:44.628Z,1.79
2023-02-06T15:04:47.511Z,1.81
2023-02-06T15:08:02.592Z,1.72
2023-02-06T15:11:06.656Z,1.72
2023-02-06T15:14:20.163Z,1.69
2023-02-06T15:17:23.084Z,1.74
2023-02-06T15:20:25.963Z,1.75
2023-02-06T15:23:40.011Z,1.48
2023-02-06T15:27:00.178Z,1.78
2023-02-06T15:30:02.900Z,1.68
2023-02-06T15:33:08.877Z,1.81
2023-02-06T15:36:28.512Z,1.84
2023-02-06T15:39:29.970Z,1.68
2023-02-06T15:42:31.491Z,1.96
2023-02-06T15:45:35.849Z,1.84
2023-02-06T15:48:48.806Z,1.85
2023-02-06T15:51:54.031Z,1.84
2023-02-06T15:54:58.929Z,1.69
2023-02-06T15:58:02.030Z,1.69
2023-02-06T16:01:05.847Z,1.83
2023-02-06T16:04:37.260Z,1.96
2023-02-06T16:07:39.146Z,1.78
2023-02-06T16:10:40.742Z,1.60
2023-02-06T16:13:42.391Z,1.62
2023-02-06T16:16:43.987Z,1.67
2023-02-06T16:19:48.524Z,1.61
2023-02-06T16:22:51.436Z,1.57
2023-02-06T16:26:00.957Z,1.71
2023-02-06T16:29:08.475Z,1.76
2023-02-06T16:32:18.526Z,2.13
2023-02-06T16:35:20.117Z,1.81
2023-02-06T16:38:21.741Z,1.67
2023-02-06T16:41:29.821Z,1.69
2023-02-06T16:44:43.968Z,1.49
2023-02-06T16:47:46.605Z,1.54
2023-02-06T16:50:48.134Z,1.55
2023-02-06T16:53:49.671Z,1.37
2023-02-06T16:56:51.558Z,1.40
2023-02-06T16:59:53.164Z,1.38
2023-02-06T17:02:54.704Z,1.16
2023-02-06T17:05:56.320Z,1.13
2023-02-06T17:09:02.027Z,0.96
2023-02-06T17:12:03.682Z,1.03
2023-02-06T17:15:05.505Z,1.06
2023-02-06T17:18:07.037Z,1.18
2023-02-06T17:21:11.115Z,0.97
2023-02-06T17:24:12.650Z,1.25
2023-02-06T17:27:17.688Z,1.25
2023-02-06T17:30:20.416Z,1.21
2023-02-06T17:33:21.736Z,1.23
2023-02-06T17:36:29.375Z,1.00
2023-02-06T17:39:30.889Z,0.78
2023-02-06T17:42:32.655Z,0.76
2023-02-06T17:45:35.076Z,0.72
2023-02-06T17:48:39.290Z,0.62
2023-02-06T17:51:40.982Z,0.69
2023-02-06T17:54:42.924Z,0.44
2023-02-06T17:57:44.380Z,0.55
2023-02-06T18:00:49.427Z,0.38
2023-02-06T18:03:50.968Z,0.65
2023-02-06T18:06:52.721Z,0.80
2023-02-06T18:09:54.256Z,0.88
2023-02-06T18:12:55.692Z,0.68
2023-02-06T18:15:57.265Z,0.63
2023-02-06T18:18:58.824Z,0.71
2023-02-06T18:22:00.362Z,0.53
2023-02-06T18:25:05.078Z,0.62
2023-02-06T18:28:06.613Z,0.47
2023-02-06T18:31:20.575Z,0.57
2023-02-06T18:34:22.021Z,0.53
2023-02-06T18:37:23.525Z,0.54
2023-02-06T18:40:25.009Z,0.53
2023-02-06T18:43:27.848Z,0.50
2023-02-06T18:46:29.393Z,0.44
2023-02-06T18:49:30.833Z,0.42
2023-02-06T18:52:32.305Z,0.37
2023-02-06T18:55:35.040Z,0.35
2023-02-06T18:58:36.388Z,0.71
2023-02-06T19:01:38.105Z,0.41
2023-02-06T19:04:40.568Z,0.40
2023-02-06T19:07:42.141Z,0.51
2023-02-06T19:10:43.695Z,0.53
2023-02-06T19:13:45.342Z,0.54
2023-02-06T19:16:49.214Z,0.41
2023-02-06T19:19:50.809Z,0.28
2023-02-06T19:22:53.582Z,0.18
2023-02-06T19:25:55.039Z,0.22
2023-02-06T19:28:57.461Z,0.42
2023-02-06T19:31:59.288Z,0.34
2023-02-06T19:35:00.764Z,0.12
2023-02-06T19:38:03.460Z,-0.03
2023-02-06T19:41:08.170Z,0.10
2023-02-06T19:44:11.136Z,0.05
2023-02-06T19:47:12.609Z,0.18
2023-02-06T19:50:14.515Z,0.37
2023-02-06T19:53:17.032Z,0.32
2023-02-06T19:56:47.797Z,0.30
2023-02-06T19:59:49.249Z,0.23
2023-02-06T20:02:50.877Z,0.18
2023-02-06T20:05:52.342Z,0.28
2023-02-06T20:08:53.846Z,0.38
2023-02-06T20:11:55.871Z,0.33
2023-02-06T20:14:59.329Z,0.30
2023-02-06T20:18:00.770Z,0.33
2023-02-06T20:21:02.303Z,-0.08
2023-02-06T20:24:05.604Z,-0.02
2023-02-06T20:27:08.469Z,0.21
2023-02-06T20:30:10.472Z,0.17
2023-02-06T20:33:12.149Z,0.13
2023-02-06T20:36:15.481Z,0.17
2023-02-06T20:39:17.076Z,0.30
2023-02-06T20:42:22.202Z,-0.03
2023-02-06T20:45:23.644Z,0.06
2023-02-06T20:48:25.103Z,0.16
2023-02-06T20:51:27.226Z,0.11
2023-02-06T20:54:30.087Z,0.15
2023-02-06T20:57:34.596Z,-0.03
2023-02-06T21:00:37.241Z,-0.13
2023-02-06T21:03:38.904Z,-0.01
2023-02-06T21:06:40.527Z,-0.01
2023-02-06T21:09:42.198Z,-0.13
2023-02-06T21:12:43.662Z,0.19
2023-02-06T21:15:54.696Z,0.31
2023-02-06T21:18:57.217Z,0.38
2023-02-06T21:21:58.831Z,0.33
2023-02-06T21:25:00.395Z,0.21
2023-02-06T21:28:01.929Z,0.04
2023-02-06T21:31:06.014Z,0.11
2023-02-06T21:34:13.516Z,0.00
2023-02-06T21:37:15.062Z,0.08
2023-02-06T21:40:17.038Z,0.18
2023-02-06T21:43:18.514Z,-0.13
2023-02-06T21:46:20.137Z,-0.21
2023-02-06T21:49:21.737Z,0.01
2023-02-06T21:52:23.224Z,0.03
2023-02-06T21:55:25.281Z,-0.18
2023-02-06T21:58:26.758Z,0.14
2023-02-06T22:01:29.846Z,-0.04
2023-02-06T22:04:31.354Z,0.03
2023-02-06T22:07:36.706Z,0.03
2023-02-06T22:10:38.218Z,0.54
2023-02-06T22:13:40.098Z,0.46
2023-02-06T22:16:41.651Z,0.72
2023-02-06T22:19:43.122Z,0.42
2023-02-06T22:22:44.595Z,0.29
2023-02-06T22:25:47.904Z,0.41
2023-02-06T22:28:49.363Z,0.36
2023-02-06T22:31:50.984Z,0.63
2023-02-06T22:34:53.904Z,0.75
2023-02-06T22:37:56.275Z,0.69
2023-02-06T22:41:01.939Z,0.66
2023-02-06T22:44:03.450Z,0.69
2023-02-06T22:47:04.920Z,0.80
2023-02-06T22:50:06.487Z,0.63
2023-02-06T22:53:28.384Z,0.70
2023-02-06T22:56:31.676Z,0.63
2023-02-06T22:59:33.196Z,0.53
2023-02-06T23:02:34.871Z,0.65
2023-02-06T23:05:36.743Z,0.74
2023-02-06T23:08:38.413Z,0.84
2023-02-06T23:11:39.906Z,0.77
2023-02-06T23:14:41.385Z,0.79
2023-02-06T23:17:42.830Z,0.71
2023-02-06T23:20:44.452Z,0.69
2023-02-06T23:23:45.903Z,0.87
2023-02-06T23:26:48.931Z,0.80
2023-02-06T23:29:50.412Z,0.76
2023-02-06T23:32:51.877Z,0.77
2023-02-06T23:35:53.322Z,0.79
2023-02-06T23:38:54.837Z,0.89
2023-02-06T23:41:56.321Z,0.69
2023-02-06T23:44:57.784Z,0.73
2023-02-06T23:47:59.301Z,0.80
2023-02-06T23:51:01.784Z,0.88
2023-02-06T23:54:03.952Z,0.94
2023-02-06T23:57:05.403Z,0.66
